Prairie Du Chien, WI

6:24 AM CST on December 03, 2016 (GMT -0600)
Millville | | Change Station

Elev 702 ft 43.02 °N, 90.94 °W | Updated 15 seconds ago

Overcast
Overcast
30.2 °F
Feels Like 30 °F
N
0.0
Wind Variable Wind from South

Today
High -- | Low -- °F
--% Chance of Precip.
Yesterday
High -- | Low -- °F
Precip. -- in
Pressure 30.39 in
Visibility 10.0 miles
Clouds Overcast 2200 ft
Windchill 30 °F
Dew Point 24 °F
Humidity 76%
Rainfall 0.00 in
Snow Depth Not available.
7:18 AM 4:30 PM
Waxing Crescent, 14% visible
METAR KOVS 031153Z AUTO VRB05KT 10SM OVC022 00/M05 A3036 RMK AO2 SLP290 T00001050 10006 20000 51005
Pressure 30.39 in
Visibility 10.0 miles
Clouds Overcast 2200 ft
Windchill 30 °F
Dew Point 24 °F
Humidity 76%
Rainfall 0.00 in
Snow Depth Not available.
7:18 AM 4:30 PM
Waxing Crescent, 14% visible
METAR KOVS 031153Z AUTO VRB05KT 10SM OVC022 00/M05 A3036 RMK AO2 SLP290 T00001050 10006 20000 51005

10-Day Weather Forecast

Almanac

Astronomy

Dec. 03, 2016 Rise Set
Actual Time
Civil Twilight
Nautical Twilight
Astronomical Twilight
Moon
Length of Visible Light
Length of Day
Tomorrow will be .
, % of the Moon is Illuminated

Today's Extremes

State Highs State Lows

Community

WunderPhotos

Upload Photos

1,955,441 photos uploaded!

WunderBlog® & News

Nearby

Air Quality

  Air Quality AQ Index Pollutant
Not available.

Snow Depth

Station Depth Elevation

Earthquake Activity

City Distance Mag. Time & Date
Minimum magnitude displayed is 2.5.

Coastal Water Temperatures

Place Temperature

Stations

Nearby Weather Stations

Station Location Temp. Windchill Dew Point Humidity Wind Precip. Elev Updated Type
                   

Watches & Warnings

There are currently no watches in effect.